sensor_id;sensor_type;location;lat;lon;timestamp;pressure;altitude;pressure_sealevel;temperature;humidity
6514;BME280;3290;47.716;9.070;2023-04-19T00:01:17;97285.63;;;11.72;92.72
6514;BME280;3290;47.716;9.070;2023-04-19T00:03:44;97282.88;;;11.60;93.82
6514;BME280;3290;47.716;9.070;2023-04-19T00:06:09;97284.56;;;11.79;93.63
6514;BME280;3290;47.716;9.070;2023-04-19T00:08:35;97272.19;;;11.62;93.70
6514;BME280;3290;47.716;9.070;2023-04-19T00:11:00;97268.06;;;11.72;92.66
6514;BME280;3290;47.716;9.070;2023-04-19T00:13:26;97273.47;;;11.77;93.49
6514;BME280;3290;47.716;9.070;2023-04-19T00:15:51;97269.50;;;11.93;91.75
6514;BME280;3290;47.716;9.070;2023-04-19T00:18:16;97267.44;;;11.70;93.51
6514;BME280;3290;47.716;9.070;2023-04-19T00:20:42;97268.41;;;11.52;93.69
6514;BME280;3290;47.716;9.070;2023-04-19T00:23:07;97259.06;;;11.62;93.16
6514;BME280;3290;47.716;9.070;2023-04-19T00:25:33;97257.03;;;11.64;92.52
6514;BME280;3290;47.716;9.070;2023-04-19T00:27:58;97257.47;;;11.55;93.21
6514;BME280;3290;47.716;9.070;2023-04-19T00:30:24;97252.31;;;11.72;92.33
6514;BME280;3290;47.716;9.070;2023-04-19T00:32:49;97254.78;;;11.67;92.92
6514;BME280;3290;47.716;9.070;2023-04-19T00:35:15;97251.41;;;11.60;93.02
6514;BME280;3290;47.716;9.070;2023-04-19T00:37:40;97252.94;;;11.68;92.51
6514;BME280;3290;47.716;9.070;2023-04-19T00:40:06;97250.13;;;11.69;92.80
6514;BME280;3290;47.716;9.070;2023-04-19T00:42:31;97247.91;;;11.66;92.44
6514;BME280;3290;47.716;9.070;2023-04-19T00:44:57;97250.50;;;11.73;92.21
6514;BME280;3290;47.716;9.070;2023-04-19T00:47:22;97253.56;;;11.63;92.97
6514;BME280;3290;47.716;9.070;2023-04-19T00:49:47;97244.03;;;11.45;93.82
6514;BME280;3290;47.716;9.070;2023-04-19T00:52:13;97250.03;;;11.52;92.88
6514;BME280;3290;47.716;9.070;2023-04-19T00:54:39;97243.59;;;11.48;93.45
6514;BME280;3290;47.716;9.070;2023-04-19T00:57:07;97249.81;;;11.53;93.49
6514;BME280;3290;47.716;9.070;2023-04-19T00:59:34;97242.69;;;11.60;93.20
6514;BME280;3290;47.716;9.070;2023-04-19T01:01:59;97237.03;;;11.87;91.43
6514;BME280;3290;47.716;9.070;2023-04-19T01:04:25;97238.75;;;11.75;92.84
6514;BME280;3290;47.716;9.070;2023-04-19T01:06:51;97238.28;;;11.60;92.80
6514;BME280;3290;47.716;9.070;2023-04-19T01:09:16;97237.44;;;11.60;92.63
6514;BME280;3290;47.716;9.070;2023-04-19T01:11:41;97232.16;;;11.66;93.24
6514;BME280;3290;47.716;9.070;2023-04-19T01:14:07;97236.22;;;11.62;93.06
6514;BME280;3290;47.716;9.070;2023-04-19T01:16:32;97228.47;;;11.74;92.65
6514;BME280;3290;47.716;9.070;2023-04-19T01:18:58;97225.53;;;11.88;91.60
6514;BME280;3290;47.716;9.070;2023-04-19T01:21:23;97224.88;;;11.68;91.60
6514;BME280;3290;47.716;9.070;2023-04-19T01:23:48;97228.09;;;11.70;92.10
6514;BME280;3290;47.716;9.070;2023-04-19T01:26:14;97221.13;;;11.82;90.58
6514;BME280;3290;47.716;9.070;2023-04-19T01:28:40;97210.63;;;11.82;91.26
6514;BME280;3290;47.716;9.070;2023-04-19T01:31:06;97216.16;;;11.74;91.03
6514;BME280;3290;47.716;9.070;2023-04-19T01:33:31;97208.53;;;11.66;92.06
6514;BME280;3290;47.716;9.070;2023-04-19T01:35:56;97210.31;;;11.72;91.27
6514;BME280;3290;47.716;9.070;2023-04-19T01:38:22;97214.34;;;11.75;92.17
6514;BME280;3290;47.716;9.070;2023-04-19T01:40:47;97206.88;;;11.96;90.48
6514;BME280;3290;47.716;9.070;2023-04-19T01:43:16;97207.88;;;11.95;90.24
6514;BME280;3290;47.716;9.070;2023-04-19T01:45:41;97199.16;;;12.01;90.17
6514;BME280;3290;47.716;9.070;2023-04-19T01:48:06;97196.38;;;11.96;90.58
6514;BME280;3290;47.716;9.070;2023-04-19T01:50:32;97193.47;;;12.04;90.03
6514;BME280;3290;47.716;9.070;2023-04-19T01:52:58;97200.63;;;11.97;90.17
6514;BME280;3290;47.716;9.070;2023-04-19T01:55:24;97200.44;;;11.92;90.47
6514;BME280;3290;47.716;9.070;2023-04-19T01:57:49;97194.88;;;11.82;90.78
6514;BME280;3290;47.716;9.070;2023-04-19T02:00:17;97193.47;;;12.04;90.26
6514;BME280;3290;47.716;9.070;2023-04-19T02:02:43;97200.75;;;12.02;90.11
6514;BME280;3290;47.716;9.070;2023-04-19T02:05:08;97190.13;;;11.97;89.25
6514;BME280;3290;47.716;9.070;2023-04-19T02:07:34;97195.19;;;11.92;89.98
6514;BME280;3290;47.716;9.070;2023-04-19T02:09:59;97193.63;;;12.09;88.77
6514;BME280;3290;47.716;9.070;2023-04-19T02:12:26;97185.16;;;11.83;90.32
6514;BME280;3290;47.716;9.070;2023-04-19T02:14:55;97187.66;;;11.78;90.08
6514;BME280;3290;47.716;9.070;2023-04-19T02:17:24;97184.69;;;11.92;89.15
6514;BME280;3290;47.716;9.070;2023-04-19T02:19:50;97187.78;;;12.25;89.04
6514;BME280;3290;47.716;9.070;2023-04-19T02:22:16;97186.72;;;12.32;87.98
6514;BME280;3290;47.716;9.070;2023-04-19T02:24:41;97190.34;;;12.13;88.63
6514;BME280;3290;47.716;9.070;2023-04-19T02:27:06;97187.28;;;12.16;88.25
6514;BME280;3290;47.716;9.070;2023-04-19T02:29:32;97186.47;;;12.16;88.83
6514;BME280;3290;47.716;9.070;2023-04-19T02:31:57;97185.81;;;12.02;89.30
6514;BME280;3290;47.716;9.070;2023-04-19T02:34:23;97185.91;;;12.32;88.01
6514;BME280;3290;47.716;9.070;2023-04-19T02:36:48;97180.06;;;12.12;87.70
6514;BME280;3290;47.716;9.070;2023-04-19T02:39:14;97191.72;;;12.16;87.61
6514;BME280;3290;47.716;9.070;2023-04-19T02:41:40;97180.84;;;12.12;87.86
6514;BME280;3290;47.716;9.070;2023-04-19T02:44:05;97182.47;;;12.13;86.98
6514;BME280;3290;47.716;9.070;2023-04-19T02:46:30;97183.25;;;12.14;87.46
6514;BME280;3290;47.716;9.070;2023-04-19T02:48:56;97181.34;;;12.03;88.42
6514;BME280;3290;47.716;9.070;2023-04-19T02:51:21;97180.22;;;12.35;87.75
6514;BME280;3290;47.716;9.070;2023-04-19T02:53:46;97179.81;;;11.96;88.34
6514;BME280;3290;47.716;9.070;2023-04-19T02:56:12;97173.06;;;12.24;87.84
6514;BME280;3290;47.716;9.070;2023-04-19T02:58:37;97177.72;;;12.04;87.47
6514;BME280;3290;47.716;9.070;2023-04-19T03:01:02;97181.50;;;11.90;88.51
6514;BME280;3290;47.716;9.070;2023-04-19T03:03:28;97187.13;;;11.94;87.95
6514;BME280;3290;47.716;9.070;2023-04-19T03:05:53;97178.47;;;12.11;87.36
6514;BME280;3290;47.716;9.070;2023-04-19T03:08:19;97179.06;;;12.13;87.67
6514;BME280;3290;47.716;9.070;2023-04-19T03:10:44;97174.06;;;12.05;87.79
6514;BME280;3290;47.716;9.070;2023-04-19T03:13:09;97178.47;;;12.11;86.85
6514;BME280;3290;47.716;9.070;2023-04-19T03:15:35;97167.41;;;11.85;86.62
6514;BME280;3290;47.716;9.070;2023-04-19T03:18:00;97178.66;;;11.92;87.12
6514;BME280;3290;47.716;9.070;2023-04-19T03:20:26;97177.84;;;11.91;87.13
6514;BME280;3290;47.716;9.070;2023-04-19T03:22:51;97177.84;;;11.91;86.75
6514;BME280;3290;47.716;9.070;2023-04-19T03:25:17;97171.00;;;12.08;85.96
6514;BME280;3290;47.716;9.070;2023-04-19T03:27:42;97169.69;;;11.99;86.25
6514;BME280;3290;47.716;9.070;2023-04-19T03:30:10;97172.00;;;11.89;86.58
6514;BME280;3290;47.716;9.070;2023-04-19T03:32:36;97170.81;;;12.09;86.21
6514;BME280;3290;47.716;9.070;2023-04-19T03:35:02;97167.72;;;12.12;86.04
6514;BME280;3290;47.716;9.070;2023-04-19T03:37:27;97166.59;;;11.84;86.36
6514;BME280;3290;47.716;9.070;2023-04-19T03:39:53;97159.75;;;11.83;87.25
6514;BME280;3290;47.716;9.070;2023-04-19T03:42:18;97162.03;;;11.98;86.72
6514;BME280;3290;47.716;9.070;2023-04-19T03:44:43;97161.50;;;12.07;86.10
6514;BME280;3290;47.716;9.070;2023-04-19T03:47:09;97159.94;;;12.06;86.79
6514;BME280;3290;47.716;9.070;2023-04-19T03:49:35;97157.19;;;11.95;86.56
6514;BME280;3290;47.716;9.070;2023-04-19T03:52:00;97162.03;;;11.98;86.39
6514;BME280;3290;47.716;9.070;2023-04-19T03:54:26;97158.53;;;12.03;86.16
6514;BME280;3290;47.716;9.070;2023-04-19T03:56:51;97155.03;;;12.09;85.69
6514;BME280;3290;47.716;9.070;2023-04-19T03:59:16;97153.38;;;12.15;85.46
6514;BME280;3290;47.716;9.070;2023-04-19T04:01:42;97150.44;;;12.23;85.24
6514;BME280;3290;47.716;9.070;2023-04-19T04:04:07;97148.53;;;12.12;85.09
6514;BME280;3290;47.716;9.070;2023-04-19T04:06:33;97149.78;;;12.09;85.92
6514;BME280;3290;47.716;9.070;2023-04-19T04:08:59;97154.22;;;12.09;86.01
6514;BME280;3290;47.716;9.070;2023-04-19T04:11:24;97150.16;;;12.13;85.96
6514;BME280;3290;47.716;9.070;2023-04-19T04:13:50;97155.47;;;12.06;85.21
6514;BME280;3290;47.716;9.070;2023-04-19T04:16:15;97164.88;;;12.32;84.98
6514;BME280;3290;47.716;9.070;2023-04-19T04:18:40;97154.84;;;12.29;84.58
6514;BME280;3290;47.716;9.070;2023-04-19T04:21:06;97162.13;;;12.27;85.27
6514;BME280;3290;47.716;9.070;2023-04-19T04:23:31;97158.78;;;12.38;84.62
6514;BME280;3290;47.716;9.070;2023-04-19T04:25:59;97158.09;;;12.24;84.31
6514;BME280;3290;47.716;9.070;2023-04-19T04:28:29;97162.25;;;12.32;84.82
6514;BME280;3290;47.716;9.070;2023-04-19T04:30:55;97164.88;;;12.32;85.25
6514;BME280;3290;47.716;9.070;2023-04-19T04:33:24;97169.66;;;12.41;84.17
6514;BME280;3290;47.716;9.070;2023-04-19T04:35:50;97160.13;;;12.04;85.83
6514;BME280;3290;47.716;9.070;2023-04-19T04:38:16;97164.06;;;11.96;86.79
6514;BME280;3290;47.716;9.070;2023-04-19T04:40:41;97163.84;;;11.97;86.65
6514;BME280;3290;47.716;9.070;2023-04-19T04:43:07;97171.88;;;12.02;85.82
6514;BME280;3290;47.716;9.070;2023-04-19T04:45:32;97163.97;;;12.02;86.28
6514;BME280;3290;47.716;9.070;2023-04-19T04:47:57;97171.66;;;12.21;85.61
6514;BME280;3290;47.716;9.070;2023-04-19T04:50:23;97172.59;;;12.09;87.17
6514;BME280;3290;47.716;9.070;2023-04-19T04:52:48;97169.59;;;12.05;86.54
6514;BME280;3290;47.716;9.070;2023-04-19T04:55:14;97173.28;;;12.04;87.01
6514;BME280;3290;47.716;9.070;2023-04-19T04:57:39;97163.19;;;12.01;86.67
6514;BME280;3290;47.716;9.070;2023-04-19T05:00:05;97167.66;;;12.01;86.97
6514;BME280;3290;47.716;9.070;2023-04-19T05:02:31;97163.41;;;12.18;86.14
6514;BME280;3290;47.716;9.070;2023-04-19T05:04:56;97162.56;;;12.06;86.14
6514;BME280;3290;47.716;9.070;2023-04-19T05:07:22;97173.81;;;12.31;85.10
6514;BME280;3290;47.716;9.070;2023-04-19T05:09:47;97169.28;;;12.20;85.86
6514;BME280;3290;47.716;9.070;2023-04-19T05:12:12;97170.66;;;12.22;85.60
6514;BME280;3290;47.716;9.070;2023-04-19T05:14:38;97174.38;;;12.15;86.18
6514;BME280;3290;47.716;9.070;2023-04-19T05:17:03;97167.06;;;11.99;86.07
6514;BME280;3290;47.716;9.070;2023-04-19T05:19:29;97170.50;;;12.35;85.02
6514;BME280;3290;47.716;9.070;2023-04-19T05:21:54;97172.50;;;12.22;85.35
6514;BME280;3290;47.716;9.070;2023-04-19T05:24:19;97168.28;;;12.14;85.27
6514;BME280;3290;47.716;9.070;2023-04-19T05:26:45;97171.22;;;12.06;85.58
6514;BME280;3290;47.716;9.070;2023-04-19T05:29:10;97172.34;;;12.17;85.19
6514;BME280;3290;47.716;9.070;2023-04-19T05:31:36;97168.25;;;12.21;85.01
6514;BME280;3290;47.716;9.070;2023-04-19T05:34:01;97169.56;;;12.12;84.43
6514;BME280;3290;47.716;9.070;2023-04-19T05:36:26;97178.38;;;12.35;83.46
6514;BME280;3290;47.716;9.070;2023-04-19T05:38:52;97172.53;;;12.15;83.23
6514;BME280;3290;47.716;9.070;2023-04-19T05:41:17;97174.31;;;12.39;83.31
6514;BME280;3290;47.716;9.070;2023-04-19T05:43:42;97176.53;;;12.18;83.46
6514;BME280;3290;47.716;9.070;2023-04-19T05:46:08;97175.69;;;12.41;82.40
6514;BME280;3290;47.716;9.070;2023-04-19T05:48:33;97169.97;;;12.09;83.90
6514;BME280;3290;47.716;9.070;2023-04-19T05:50:59;97174.53;;;12.20;84.00
6514;BME280;3290;47.716;9.070;2023-04-19T05:53:24;97177.66;;;12.10;83.85
6514;BME280;3290;47.716;9.070;2023-04-19T05:55:49;97179.47;;;12.10;83.80
6514;BME280;3290;47.716;9.070;2023-04-19T05:58:16;97178.91;;;12.43;83.18
6514;BME280;3290;47.716;9.070;2023-04-19T06:00:42;97182.22;;;12.39;82.78
6514;BME280;3290;47.716;9.070;2023-04-19T06:03:07;97178.53;;;12.40;82.91
6514;BME280;3290;47.716;9.070;2023-04-19T06:05:33;97182.25;;;12.33;83.48
6514;BME280;3290;47.716;9.070;2023-04-19T06:07:58;97184.53;;;12.47;83.15
6514;BME280;3290;47.716;9.070;2023-04-19T06:10:24;97181.97;;;12.58;83.35
6514;BME280;3290;47.716;9.070;2023-04-19T06:12:49;97179.34;;;12.40;84.60
6514;BME280;3290;47.716;9.070;2023-04-19T06:15:14;97178.16;;;12.37;84.82
6514;BME280;3290;47.716;9.070;2023-04-19T06:17:40;97184.09;;;12.32;84.60
6514;BME280;3290;47.716;9.070;2023-04-19T06:20:06;97177.75;;;12.22;85.18
6514;BME280;3290;47.716;9.070;2023-04-19T06:22:32;97175.84;;;12.29;85.26
6514;BME280;3290;47.716;9.070;2023-04-19T06:24:58;97182.09;;;12.45;85.02
6514;BME280;3290;47.716;9.070;2023-04-19T06:27:23;97177.91;;;12.27;84.00
6514;BME280;3290;47.716;9.070;2023-04-19T06:29:48;97180.38;;;12.39;84.40
6514;BME280;3290;47.716;9.070;2023-04-19T06:32:14;97183.28;;;12.32;84.70
6514;BME280;3290;47.716;9.070;2023-04-19T06:34:39;97178.16;;;12.54;83.35
6514;BME280;3290;47.716;9.070;2023-04-19T06:37:04;97184.38;;;12.42;84.09
6514;BME280;3290;47.716;9.070;2023-04-19T06:39:30;97180.34;;;12.57;82.80
6514;BME280;3290;47.716;9.070;2023-04-19T06:41:55;97185.78;;;12.44;84.27
6514;BME280;3290;47.716;9.070;2023-04-19T06:44:20;97184.75;;;12.28;83.83
6514;BME280;3290;47.716;9.070;2023-04-19T06:46:46;97190.78;;;12.28;84.17
6514;BME280;3290;47.716;9.070;2023-04-19T06:49:11;97196.88;;;12.46;83.70
6514;BME280;3290;47.716;9.070;2023-04-19T06:51:38;97188.91;;;12.35;84.55
6514;BME280;3290;47.716;9.070;2023-04-19T06:54:03;97193.94;;;12.37;84.82
6514;BME280;3290;47.716;9.070;2023-04-19T06:56:39;97198.34;;;12.42;84.09
6514;BME280;3290;47.716;9.070;2023-04-19T06:59:06;97195.41;;;12.50;84.07
6514;BME280;3290;47.716;9.070;2023-04-19T07:01:31;97197.75;;;12.58;83.37
6514;BME280;3290;47.716;9.070;2023-04-19T07:03:57;97197.94;;;12.75;83.20
6514;BME280;3290;47.716;9.070;2023-04-19T07:06:22;97193.00;;;12.84;82.75
6514;BME280;3290;47.716;9.070;2023-04-19T07:08:48;97202.84;;;12.89;82.54
6514;BME280;3290;47.716;9.070;2023-04-19T07:11:13;97194.81;;;12.84;82.37
6514;BME280;3290;47.716;9.070;2023-04-19T07:13:38;97194.34;;;13.05;81.49
6514;BME280;3290;47.716;9.070;2023-04-19T07:16:04;97199.03;;;13.03;81.01
6514;BME280;3290;47.716;9.070;2023-04-19T07:18:29;97199.25;;;13.01;81.22
6514;BME280;3290;47.716;9.070;2023-04-19T07:20:55;97194.75;;;12.73;82.14
6514;BME280;3290;47.716;9.070;2023-04-19T07:23:20;97195.69;;;12.78;83.21
6514;BME280;3290;47.716;9.070;2023-04-19T07:25:45;97191.41;;;12.83;82.85
6514;BME280;3290;47.716;9.070;2023-04-19T07:28:11;97195.75;;;12.72;82.75
6514;BME280;3290;47.716;9.070;2023-04-19T07:30:36;97192.19;;;12.84;82.61
6514;BME280;3290;47.716;9.070;2023-04-19T07:33:02;97192.53;;;12.87;82.59
6514;BME280;3290;47.716;9.070;2023-04-19T07:35:29;97197.00;;;12.87;82.31
6514;BME280;3290;47.716;9.070;2023-04-19T07:37:54;97193.94;;;12.72;83.00
6514;BME280;3290;47.716;9.070;2023-04-19T07:40:19;97192.66;;;12.81;82.21
6514;BME280;3290;47.716;9.070;2023-04-19T07:42:45;97189.19;;;12.63;83.32
6514;BME280;3290;47.716;9.070;2023-04-19T07:45:10;97194.59;;;12.85;82.62
6514;BME280;3290;47.716;9.070;2023-04-19T07:47:36;97189.56;;;12.84;82.79
6514;BME280;3290;47.716;9.070;2023-04-19T07:50:01;97196.13;;;12.93;82.46
6514;BME280;3290;47.716;9.070;2023-04-19T07:52:27;97195.84;;;12.83;82.46
6514;BME280;3290;47.716;9.070;2023-04-19T07:54:53;97196.59;;;12.90;82.28
6514;BME280;3290;47.716;9.070;2023-04-19T07:57:18;97195.81;;;13.01;82.47
6514;BME280;3290;47.716;9.070;2023-04-19T07:59:43;97187.38;;;13.10;81.86
6514;BME280;3290;47.716;9.070;2023-04-19T08:02:09;97185.44;;;12.70;83.31
6514;BME280;3290;47.716;9.070;2023-04-19T08:04:34;97186.59;;;13.10;82.35
6514;BME280;3290;47.716;9.070;2023-04-19T08:07:01;97184.53;;;13.12;82.91
6514;BME280;3290;47.716;9.070;2023-04-19T08:09:28;97190.00;;;12.99;82.45
6514;BME280;3290;47.716;9.070;2023-04-19T08:11:53;97185.19;;;13.36;81.33
6514;BME280;3290;47.716;9.070;2023-04-19T08:14:22;97183.19;;;13.20;81.75
6514;BME280;3290;47.716;9.070;2023-04-19T08:16:47;97186.09;;;13.30;80.79
6514;BME280;3290;47.716;9.070;2023-04-19T08:19:12;97184.44;;;13.70;79.97
6514;BME280;3290;47.716;9.070;2023-04-19T08:21:38;97182.88;;;13.28;80.93
6514;BME280;3290;47.716;9.070;2023-04-19T08:24:03;97185.94;;;13.55;80.14
6514;BME280;3290;47.716;9.070;2023-04-19T08:26:30;97188.53;;;13.43;80.62
6514;BME280;3290;47.716;9.070;2023-04-19T08:28:55;97178.91;;;13.37;81.23
6514;BME280;3290;47.716;9.070;2023-04-19T08:31:20;97187.53;;;13.56;80.49
6514;BME280;3290;47.716;9.070;2023-04-19T08:33:46;97183.41;;;13.48;80.74
6514;BME280;3290;47.716;9.070;2023-04-19T08:36:11;97183.88;;;13.57;80.15
6514;BME280;3290;47.716;9.070;2023-04-19T08:38:37;97183.84;;;13.45;80.46
6514;BME280;3290;47.716;9.070;2023-04-19T08:41:03;97183.06;;;13.56;80.06
6514;BME280;3290;47.716;9.070;2023-04-19T08:43:29;97187.59;;;13.90;78.78
6514;BME280;3290;47.716;9.070;2023-04-19T08:45:57;97189.81;;;13.52;79.16
6514;BME280;3290;47.716;9.070;2023-04-19T08:48:23;97188.56;;;13.55;79.53
6514;BME280;3290;47.716;9.070;2023-04-19T08:50:50;97172.69;;;13.72;78.25
6514;BME280;3290;47.716;9.070;2023-04-19T08:53:16;97175.44;;;14.00;77.88
6514;BME280;3290;47.716;9.070;2023-04-19T08:55:42;97175.34;;;14.06;78.08
6514;BME280;3290;47.716;9.070;2023-04-19T08:58:07;97173.63;;;14.12;77.70
6514;BME280;3290;47.716;9.070;2023-04-19T09:00:34;97167.91;;;14.26;77.35
6514;BME280;3290;47.716;9.070;2023-04-19T09:03:01;97170.66;;;14.08;79.28
6514;BME280;3290;47.716;9.070;2023-04-19T09:05:27;97170.88;;;13.84;78.77
6514;BME280;3290;47.716;9.070;2023-04-19T09:07:52;97163.44;;;14.27;76.60
6514;BME280;3290;47.716;9.070;2023-04-19T09:10:19;97162.50;;;13.99;77.42
6514;BME280;3290;47.716;9.070;2023-04-19T09:13:02;97162.63;;;14.15;77.04
6514;BME280;3290;47.716;9.070;2023-04-19T09:15:39;97159.72;;;14.50;76.19
6514;BME280;3290;47.716;9.070;2023-04-19T09:18:07;97157.97;;;14.05;76.56
6514;BME280;3290;47.716;9.070;2023-04-19T09:20:40;97161.47;;;13.88;77.01
6514;BME280;3290;47.716;9.070;2023-04-19T09:23:08;97158.41;;;14.02;75.81
6514;BME280;3290;47.716;9.070;2023-04-19T09:25:33;97154.97;;;14.13;76.53
6514;BME280;3290;47.716;9.070;2023-04-19T09:28:12;97157.38;;;14.03;77.34
6514;BME280;3290;47.716;9.070;2023-04-19T09:30:39;97158.41;;;14.02;77.59
6514;BME280;3290;47.716;9.070;2023-04-19T09:33:05;97150.63;;;14.07;76.61
6514;BME280;3290;47.716;9.070;2023-04-19T09:35:43;97150.34;;;13.63;77.00
6514;BME280;3290;47.716;9.070;2023-04-19T09:38:10;97150.47;;;13.80;76.76
6514;BME280;3290;47.716;9.070;2023-04-19T09:40:37;97143.84;;;13.77;76.79
6514;BME280;3290;47.716;9.070;2023-04-19T09:43:03;97144.47;;;13.50;77.91
6514;BME280;3290;47.716;9.070;2023-04-19T09:45:44;97143.00;;;13.54;78.31
6514;BME280;3290;47.716;9.070;2023-04-19T09:48:11;97139.78;;;13.52;78.21
6514;BME280;3290;47.716;9.070;2023-04-19T09:50:56;97143.03;;;13.65;78.09
6514;BME280;3290;47.716;9.070;2023-04-19T09:53:23;97138.91;;;13.58;78.47
6514;BME280;3290;47.716;9.070;2023-04-19T09:55:49;97136.91;;;13.31;80.77
6514;BME280;3290;47.716;9.070;2023-04-19T09:58:17;97136.69;;;13.44;80.99
6514;BME280;3290;47.716;9.070;2023-04-19T10:00:44;97137.66;;;13.20;81.29
6514;BME280;3290;47.716;9.070;2023-04-19T10:03:12;97141.81;;;13.27;80.68
6514;BME280;3290;47.716;9.070;2023-04-19T10:05:39;97140.75;;;13.17;80.41
6514;BME280;3290;47.716;9.070;2023-04-19T10:08:07;97134.47;;;13.18;81.33
6514;BME280;3290;47.716;9.070;2023-04-19T10:10:32;97133.44;;;13.19;80.74
6514;BME280;3290;47.716;9.070;2023-04-19T10:12:59;97128.88;;;13.26;81.32
6514;BME280;3290;47.716;9.070;2023-04-19T10:15:26;97128.13;;;13.48;80.77
6514;BME280;3290;47.716;9.070;2023-04-19T10:17:52;97131.34;;;13.73;80.17
6514;BME280;3290;47.716;9.070;2023-04-19T10:20:24;97125.41;;;13.77;79.22
6514;BME280;3290;47.716;9.070;2023-04-19T10:22:51;97125.59;;;13.53;79.49
6514;BME280;3290;47.716;9.070;2023-04-19T10:25:17;97127.69;;;13.97;78.32
6514;BME280;3290;47.716;9.070;2023-04-19T10:27:43;97129.09;;;14.10;78.40
6514;BME280;3290;47.716;9.070;2023-04-19T10:30:24;97123.13;;;13.81;78.16
6514;BME280;3290;47.716;9.070;2023-04-19T10:32:57;97124.72;;;14.04;77.16
6514;BME280;3290;47.716;9.070;2023-04-19T10:35:25;97120.69;;;13.79;78.61
6514;BME280;3290;47.716;9.070;2023-04-19T10:43:15;97118.28;;;13.78;77.87
6514;BME280;3290;47.716;9.070;2023-04-19T10:45:42;97105.94;;;13.67;78.78
6514;BME280;3290;47.716;9.070;2023-04-19T10:51:16;97098.59;;;14.14;77.44
6514;BME280;3290;47.716;9.070;2023-04-19T10:53:50;97088.63;;;14.16;77.22
6514;BME280;3290;47.716;9.070;2023-04-19T10:56:21;97094.47;;;14.18;77.88
6514;BME280;3290;47.716;9.070;2023-04-19T10:59:13;97086.56;;;13.96;77.38
6514;BME280;3290;47.716;9.070;2023-04-19T11:01:51;97086.59;;;14.07;78.62
6514;BME280;3290;47.716;9.070;2023-04-19T11:04:17;97081.06;;;14.20;78.21
6514;BME280;3290;47.716;9.070;2023-04-19T11:09:22;97076.00;;;14.18;77.78
6514;BME280;3290;47.716;9.070;2023-04-19T11:11:48;97074.06;;;14.25;77.00
6514;BME280;3290;47.716;9.070;2023-04-19T11:14:14;97074.81;;;14.37;75.72
6514;BME280;3290;47.716;9.070;2023-04-19T11:16:41;97068.56;;;14.15;76.01
6514;BME280;3290;47.716;9.070;2023-04-19T11:19:06;97077.88;;;14.73;74.89
6514;BME280;3290;47.716;9.070;2023-04-19T11:21:31;97068.09;;;14.18;75.30
6514;BME280;3290;47.716;9.070;2023-04-19T11:24:07;97073.09;;;14.31;75.39
6514;BME280;3290;47.716;9.070;2023-04-19T11:26:33;97069.00;;;14.35;75.42
6514;BME280;3290;47.716;9.070;2023-04-19T11:28:59;97060.44;;;14.56;75.12
6514;BME280;3290;47.716;9.070;2023-04-19T11:31:25;97061.81;;;14.47;75.33
6514;BME280;3290;47.716;9.070;2023-04-19T11:33:51;97057.72;;;14.51;75.52
6514;BME280;3290;47.716;9.070;2023-04-19T11:36:16;97055.97;;;14.56;75.31
6514;BME280;3290;47.716;9.070;2023-04-19T11:38:46;97056.75;;;14.57;74.64
6514;BME280;3290;47.716;9.070;2023-04-19T11:41:12;97057.72;;;14.51;73.67
6514;BME280;3290;47.716;9.070;2023-04-19T11:43:40;97055.81;;;14.35;74.55
6514;BME280;3290;47.716;9.070;2023-04-19T11:46:10;97060.97;;;14.30;75.10
6514;BME280;3290;47.716;9.070;2023-04-19T11:48:37;97048.03;;;14.29;74.11
6514;BME280;3290;47.716;9.070;2023-04-19T11:51:02;97046.53;;;14.33;75.22
6514;BME280;3290;47.716;9.070;2023-04-19T11:53:30;97046.28;;;14.34;75.08
6514;BME280;3290;47.716;9.070;2023-04-19T11:56:06;97039.34;;;14.56;74.75
6514;BME280;3290;47.716;9.070;2023-04-19T12:01:18;97037.19;;;14.53;74.92
6514;BME280;3290;47.716;9.070;2023-04-19T12:06:15;97028.03;;;14.44;74.75
6514;BME280;3290;47.716;9.070;2023-04-19T12:08:46;97027.75;;;14.29;75.84
6514;BME280;3290;47.716;9.070;2023-04-19T12:11:12;97032.22;;;14.29;75.65
6514;BME280;3290;47.716;9.070;2023-04-19T12:13:38;97028.31;;;14.59;75.18
6514;BME280;3290;47.716;9.070;2023-04-19T12:16:09;97023.22;;;14.41;76.02
6514;BME280;3290;47.716;9.070;2023-04-19T12:18:50;97019.38;;;14.60;75.46
6514;BME280;3290;47.716;9.070;2023-04-19T12:21:26;97019.09;;;14.89;74.52
6514;BME280;3290;47.716;9.070;2023-04-19T12:23:56;97018.25;;;15.00;73.75
6514;BME280;3290;47.716;9.070;2023-04-19T12:26:22;97011.75;;;15.07;72.21
6514;BME280;3290;47.716;9.070;2023-04-19T12:28:47;97003.09;;;14.79;72.14
6514;BME280;3290;47.716;9.070;2023-04-19T12:31:12;97009.78;;;15.14;72.54
6514;BME280;3290;47.716;9.070;2023-04-19T12:33:38;97013.00;;;14.88;75.48
6514;BME280;3290;47.716;9.070;2023-04-19T12:36:03;97006.38;;;14.86;73.46
6514;BME280;3290;47.716;9.070;2023-04-19T12:38:29;97011.69;;;14.58;73.61
6514;BME280;3290;47.716;9.070;2023-04-19T12:40:54;97010.13;;;14.74;73.86
6514;BME280;3290;47.716;9.070;2023-04-19T12:43:19;97005.19;;;14.93;73.49
6514;BME280;3290;47.716;9.070;2023-04-19T12:45:45;96997.38;;;15.31;72.76
6514;BME280;3290;47.716;9.070;2023-04-19T12:48:10;96998.47;;;14.86;71.07
6514;BME280;3290;47.716;9.070;2023-04-19T12:50:35;96996.25;;;15.27;71.23
6514;BME280;3290;47.716;9.070;2023-04-19T12:53:01;96994.97;;;15.46;69.98
6514;BME280;3290;47.716;9.070;2023-04-19T12:55:26;96990.22;;;15.48;68.99
6514;BME280;3290;47.716;9.070;2023-04-19T12:57:52;96983.72;;;15.55;68.31
6514;BME280;3290;47.716;9.070;2023-04-19T13:00:17;96992.41;;;15.51;67.31
6514;BME280;3290;47.716;9.070;2023-04-19T13:02:43;96979.72;;;15.90;69.67
6514;BME280;3290;47.716;9.070;2023-04-19T13:05:08;96977.34;;;16.31;66.72
6514;BME280;3290;47.716;9.070;2023-04-19T13:07:34;96975.41;;;16.27;67.66
6514;BME280;3290;47.716;9.070;2023-04-19T13:09:59;96958.63;;;16.38;66.06
6514;BME280;3290;47.716;9.070;2023-04-19T13:12:25;96966.88;;;16.20;67.55
6514;BME280;3290;47.716;9.070;2023-04-19T13:14:50;96962.94;;;16.01;67.20
6514;BME280;3290;47.716;9.070;2023-04-19T13:17:19;96956.78;;;15.74;67.83
6514;BME280;3290;47.716;9.070;2023-04-19T13:19:45;96952.41;;;16.53;66.90
6514;BME280;3290;47.716;9.070;2023-04-19T13:22:11;96949.63;;;16.65;65.78
6514;BME280;3290;47.716;9.070;2023-04-19T13:24:36;96940.88;;;16.33;66.81
6514;BME280;3290;47.716;9.070;2023-04-19T13:27:02;96947.44;;;16.31;69.46
6514;BME280;3290;47.716;9.070;2023-04-19T13:29:27;96941.72;;;15.54;69.48
6514;BME280;3290;47.716;9.070;2023-04-19T13:31:53;96935.66;;;15.74;68.93
6514;BME280;3290;47.716;9.070;2023-04-19T13:34:19;96931.03;;;16.07;69.39